sensor_id;sensor_type;location;lat;lon;timestamp;P1;durP1;ratioP1;P2;durP2;ratioP2
20397;SDS011;10358;49.590;11.030;2023-03-01T00:01:58;27.40;;;12.40;;
20397;SDS011;10358;49.590;11.030;2023-03-01T00:04:23;24.50;;;12.90;;
20397;SDS011;10358;49.590;11.030;2023-03-01T00:06:49;25.73;;;12.90;;
20397;SDS011;10358;49.590;11.030;2023-03-01T00:09:15;29.40;;;13.30;;
20397;SDS011;10358;49.590;11.030;2023-03-01T00:11:41;26.60;;;13.23;;
20397;SDS011;10358;49.590;11.030;2023-03-01T00:14:07;26.90;;;13.40;;
20397;SDS011;10358;49.590;11.030;2023-03-01T00:16:34;27.77;;;13.20;;
20397;SDS011;10358;49.590;11.030;2023-03-01T00:19:03;27.53;;;13.00;;
20397;SDS011;10358;49.590;11.030;2023-03-01T00:21:29;26.27;;;12.47;;
20397;SDS011;10358;49.590;11.030;2023-03-01T00:23:55;28.83;;;13.27;;
20397;SDS011;10358;49.590;11.030;2023-03-01T00:26:21;25.03;;;13.30;;
20397;SDS011;10358;49.590;11.030;2023-03-01T00:28:48;28.10;;;13.47;;
20397;SDS011;10358;49.590;11.030;2023-03-01T00:31:15;28.67;;;13.83;;
20397;SDS011;10358;49.590;11.030;2023-03-01T00:33:43;27.63;;;13.43;;
20397;SDS011;10358;49.590;11.030;2023-03-01T00:36:09;29.67;;;14.03;;
20397;SDS011;10358;49.590;11.030;2023-03-01T00:38:36;28.97;;;13.73;;
20397;SDS011;10358;49.590;11.030;2023-03-01T00:41:06;26.07;;;12.90;;
20397;SDS011;10358;49.590;11.030;2023-03-01T00:43:33;30.00;;;14.10;;
20397;SDS011;10358;49.590;11.030;2023-03-01T00:46:09;30.53;;;14.03;;
20397;SDS011;10358;49.590;11.030;2023-03-01T00:48:36;26.63;;;13.30;;
20397;SDS011;10358;49.590;11.030;2023-03-01T00:51:09;31.60;;;14.33;;
20397;SDS011;10358;49.590;11.030;2023-03-01T00:53:36;27.57;;;13.87;;
20397;SDS011;10358;49.590;11.030;2023-03-01T00:56:03;27.87;;;14.23;;
20397;SDS011;10358;49.590;11.030;2023-03-01T00:58:30;26.20;;;13.80;;
20397;SDS011;10358;49.590;11.030;2023-03-01T01:00:56;26.93;;;14.10;;
20397;SDS011;10358;49.590;11.030;2023-03-01T01:03:22;26.73;;;14.13;;
20397;SDS011;10358;49.590;11.030;2023-03-01T01:05:50;26.80;;;13.80;;
20397;SDS011;10358;49.590;11.030;2023-03-01T01:08:16;26.00;;;13.27;;
20397;SDS011;10358;49.590;11.030;2023-03-01T01:10:43;26.10;;;13.67;;
20397;SDS011;10358;49.590;11.030;2023-03-01T01:13:09;31.77;;;14.70;;
20397;SDS011;10358;49.590;11.030;2023-03-01T01:15:35;32.83;;;15.27;;
20397;SDS011;10358;49.590;11.030;2023-03-01T01:18:00;27.97;;;14.17;;
20397;SDS011;10358;49.590;11.030;2023-03-01T01:20:26;29.77;;;13.40;;
20397;SDS011;10358;49.590;11.030;2023-03-01T01:22:52;28.50;;;14.30;;
20397;SDS011;10358;49.590;11.030;2023-03-01T01:25:18;35.27;;;14.90;;
20397;SDS011;10358;49.590;11.030;2023-03-01T01:27:44;30.67;;;13.80;;
20397;SDS011;10358;49.590;11.030;2023-03-01T01:30:09;30.80;;;14.97;;
20397;SDS011;10358;49.590;11.030;2023-03-01T01:32:35;30.43;;;14.73;;
20397;SDS011;10358;49.590;11.030;2023-03-01T01:35:01;29.47;;;13.90;;
20397;SDS011;10358;49.590;11.030;2023-03-01T01:37:27;31.23;;;14.17;;
20397;SDS011;10358;49.590;11.030;2023-03-01T01:39:57;29.60;;;13.90;;
20397;SDS011;10358;49.590;11.030;2023-03-01T01:42:27;28.77;;;14.60;;
20397;SDS011;10358;49.590;11.030;2023-03-01T01:45:23;29.77;;;14.90;;
20397;SDS011;10358;49.590;11.030;2023-03-01T01:47:53;29.63;;;14.10;;
20397;SDS011;10358;49.590;11.030;2023-03-01T01:50:21;33.90;;;13.90;;
20397;SDS011;10358;49.590;11.030;2023-03-01T01:52:48;29.07;;;14.13;;
20397;SDS011;10358;49.590;11.030;2023-03-01T01:55:20;29.13;;;13.87;;
20397;SDS011;10358;49.590;11.030;2023-03-01T01:57:57;32.17;;;14.80;;
20397;SDS011;10358;49.590;11.030;2023-03-01T02:00:27;28.87;;;14.00;;
20397;SDS011;10358;49.590;11.030;2023-03-01T02:02:58;30.53;;;14.20;;
20397;SDS011;10358;49.590;11.030;2023-03-01T02:08:13;25.90;;;13.00;;
20397;SDS011;10358;49.590;11.030;2023-03-01T02:10:41;28.40;;;14.17;;
20397;SDS011;10358;49.590;11.030;2023-03-01T02:13:07;26.00;;;13.47;;
20397;SDS011;10358;49.590;11.030;2023-03-01T02:15:34;27.37;;;13.80;;
20397;SDS011;10358;49.590;11.030;2023-03-01T02:18:02;28.10;;;13.43;;
20397;SDS011;10358;49.590;11.030;2023-03-01T02:20:33;29.77;;;14.27;;
20397;SDS011;10358;49.590;11.030;2023-03-01T02:26:45;29.30;;;13.63;;
20397;SDS011;10358;49.590;11.030;2023-03-01T02:29:14;27.20;;;14.17;;
20397;SDS011;10358;49.590;11.030;2023-03-01T02:31:40;31.47;;;14.43;;
20397;SDS011;10358;49.590;11.030;2023-03-01T02:34:11;27.37;;;14.37;;
20397;SDS011;10358;49.590;11.030;2023-03-01T02:36:49;26.93;;;13.50;;
20397;SDS011;10358;49.590;11.030;2023-03-01T02:39:33;27.00;;;13.40;;
20397;SDS011;10358;49.590;11.030;2023-03-01T02:42:07;27.73;;;13.93;;
20397;SDS011;10358;49.590;11.030;2023-03-01T02:44:38;27.00;;;13.93;;
20397;SDS011;10358;49.590;11.030;2023-03-01T02:47:03;26.97;;;13.43;;
20397;SDS011;10358;49.590;11.030;2023-03-01T02:49:31;32.87;;;13.93;;
20397;SDS011;10358;49.590;11.030;2023-03-01T02:54:36;28.97;;;14.10;;
20397;SDS011;10358;49.590;11.030;2023-03-01T02:57:11;27.17;;;13.67;;
20397;SDS011;10358;49.590;11.030;2023-03-01T02:59:37;25.93;;;13.93;;
20397;SDS011;10358;49.590;11.030;2023-03-01T03:02:08;28.23;;;14.10;;
20397;SDS011;10358;49.590;11.030;2023-03-01T03:04:45;26.43;;;13.17;;
20397;SDS011;10358;49.590;11.030;2023-03-01T03:07:11;27.00;;;13.80;;
20397;SDS011;10358;49.590;11.030;2023-03-01T03:09:37;28.33;;;14.20;;
20397;SDS011;10358;49.590;11.030;2023-03-01T03:12:02;30.27;;;14.40;;
20397;SDS011;10358;49.590;11.030;2023-03-01T03:14:28;25.60;;;13.13;;
20397;SDS011;10358;49.590;11.030;2023-03-01T03:16:53;26.63;;;13.77;;
20397;SDS011;10358;49.590;11.030;2023-03-01T03:19:19;32.00;;;14.57;;
20397;SDS011;10358;49.590;11.030;2023-03-01T03:21:45;29.37;;;14.13;;
20397;SDS011;10358;49.590;11.030;2023-03-01T03:24:11;27.27;;;13.57;;
20397;SDS011;10358;49.590;11.030;2023-03-01T03:26:37;28.10;;;14.27;;
20397;SDS011;10358;49.590;11.030;2023-03-01T03:29:02;25.33;;;13.47;;
20397;SDS011;10358;49.590;11.030;2023-03-01T03:31:28;27.03;;;13.93;;
20397;SDS011;10358;49.590;11.030;2023-03-01T03:33:54;27.97;;;14.30;;
20397;SDS011;10358;49.590;11.030;2023-03-01T03:36:21;30.03;;;13.77;;
20397;SDS011;10358;49.590;11.030;2023-03-01T03:38:48;28.23;;;13.07;;
20397;SDS011;10358;49.590;11.030;2023-03-01T03:41:14;26.07;;;13.10;;
20397;SDS011;10358;49.590;11.030;2023-03-01T03:43:40;31.80;;;12.73;;
20397;SDS011;10358;49.590;11.030;2023-03-01T03:46:07;26.13;;;13.13;;
20397;SDS011;10358;49.590;11.030;2023-03-01T03:48:34;28.33;;;13.77;;
20397;SDS011;10358;49.590;11.030;2023-03-01T03:51:01;27.20;;;13.47;;
20397;SDS011;10358;49.590;11.030;2023-03-01T03:53:27;30.07;;;14.10;;
20397;SDS011;10358;49.590;11.030;2023-03-01T03:55:54;25.07;;;13.07;;
20397;SDS011;10358;49.590;11.030;2023-03-01T03:58:20;24.87;;;12.90;;
20397;SDS011;10358;49.590;11.030;2023-03-01T04:00:49;26.23;;;13.53;;
20397;SDS011;10358;49.590;11.030;2023-03-01T04:03:16;23.93;;;13.13;;
20397;SDS011;10358;49.590;11.030;2023-03-01T04:05:44;33.77;;;13.83;;
20397;SDS011;10358;49.590;11.030;2023-03-01T04:08:09;30.30;;;13.20;;
20397;SDS011;10358;49.590;11.030;2023-03-01T04:10:37;27.07;;;14.40;;
20397;SDS011;10358;49.590;11.030;2023-03-01T04:13:03;22.67;;;12.57;;
20397;SDS011;10358;49.590;11.030;2023-03-01T04:15:30;29.07;;;13.70;;
20397;SDS011;10358;49.590;11.030;2023-03-01T04:17:58;26.77;;;13.10;;
20397;SDS011;10358;49.590;11.030;2023-03-01T04:20:25;29.37;;;13.60;;
20397;SDS011;10358;49.590;11.030;2023-03-01T04:22:59;25.60;;;13.17;;
20397;SDS011;10358;49.590;11.030;2023-03-01T04:25:40;27.27;;;13.83;;
20397;SDS011;10358;49.590;11.030;2023-03-01T04:28:20;32.67;;;14.73;;
20397;SDS011;10358;49.590;11.030;2023-03-01T04:30:46;28.07;;;13.43;;
20397;SDS011;10358;49.590;11.030;2023-03-01T04:33:11;28.37;;;14.13;;
20397;SDS011;10358;49.590;11.030;2023-03-01T04:35:37;29.20;;;13.73;;
20397;SDS011;10358;49.590;11.030;2023-03-01T04:38:04;28.73;;;14.30;;
20397;SDS011;10358;49.590;11.030;2023-03-01T04:40:30;24.63;;;12.63;;
20397;SDS011;10358;49.590;11.030;2023-03-01T04:42:56;30.93;;;14.13;;
20397;SDS011;10358;49.590;11.030;2023-03-01T04:45:21;27.60;;;13.47;;
20397;SDS011;10358;49.590;11.030;2023-03-01T04:47:47;28.60;;;13.57;;
20397;SDS011;10358;49.590;11.030;2023-03-01T04:50:14;29.20;;;14.40;;
20397;SDS011;10358;49.590;11.030;2023-03-01T04:52:42;32.53;;;13.87;;
20397;SDS011;10358;49.590;11.030;2023-03-01T04:55:08;31.07;;;14.27;;
20397;SDS011;10358;49.590;11.030;2023-03-01T04:57:35;33.20;;;13.87;;
20397;SDS011;10358;49.590;11.030;2023-03-01T05:00:00;30.70;;;15.10;;
20397;SDS011;10358;49.590;11.030;2023-03-01T05:02:26;29.10;;;13.57;;
20397;SDS011;10358;49.590;11.030;2023-03-01T05:04:51;29.80;;;14.30;;
20397;SDS011;10358;49.590;11.030;2023-03-01T05:07:17;32.50;;;14.53;;
20397;SDS011;10358;49.590;11.030;2023-03-01T05:09:47;27.97;;;14.47;;
20397;SDS011;10358;49.590;11.030;2023-03-01T05:12:13;27.53;;;14.17;;
20397;SDS011;10358;49.590;11.030;2023-03-01T05:14:39;33.33;;;14.63;;
20397;SDS011;10358;49.590;11.030;2023-03-01T05:17:06;25.27;;;13.97;;
20397;SDS011;10358;49.590;11.030;2023-03-01T05:19:32;34.93;;;15.00;;
20397;SDS011;10358;49.590;11.030;2023-03-01T05:21:57;29.57;;;14.40;;
20397;SDS011;10358;49.590;11.030;2023-03-01T05:24:26;26.93;;;14.07;;
20397;SDS011;10358;49.590;11.030;2023-03-01T05:26:53;31.90;;;14.57;;
20397;SDS011;10358;49.590;11.030;2023-03-01T05:29:19;31.70;;;14.83;;
20397;SDS011;10358;49.590;11.030;2023-03-01T05:31:49;26.20;;;14.50;;
20397;SDS011;10358;49.590;11.030;2023-03-01T05:34:17;30.13;;;14.03;;
20397;SDS011;10358;49.590;11.030;2023-03-01T05:36:42;30.43;;;14.90;;
20397;SDS011;10358;49.590;11.030;2023-03-01T05:39:08;30.17;;;13.77;;
20397;SDS011;10358;49.590;11.030;2023-03-01T05:41:33;33.87;;;14.23;;
20397;SDS011;10358;49.590;11.030;2023-03-01T05:43:59;25.90;;;13.43;;
20397;SDS011;10358;49.590;11.030;2023-03-01T05:46:24;34.67;;;14.93;;
20397;SDS011;10358;49.590;11.030;2023-03-01T05:48:50;33.17;;;14.60;;
20397;SDS011;10358;49.590;11.030;2023-03-01T05:51:15;30.27;;;14.27;;
20397;SDS011;10358;49.590;11.030;2023-03-01T05:53:42;29.07;;;14.20;;
20397;SDS011;10358;49.590;11.030;2023-03-01T05:56:07;33.20;;;13.80;;
20397;SDS011;10358;49.590;11.030;2023-03-01T05:58:33;31.00;;;14.67;;
20397;SDS011;10358;49.590;11.030;2023-03-01T06:00:59;32.83;;;14.67;;
20397;SDS011;10358;49.590;11.030;2023-03-01T06:03:25;27.63;;;13.70;;
20397;SDS011;10358;49.590;11.030;2023-03-01T06:05:55;30.77;;;14.37;;
20397;SDS011;10358;49.590;11.030;2023-03-01T06:08:21;28.33;;;14.17;;
20397;SDS011;10358;49.590;11.030;2023-03-01T06:10:47;34.73;;;15.37;;
20397;SDS011;10358;49.590;11.030;2023-03-01T06:13:13;30.97;;;15.30;;
20397;SDS011;10358;49.590;11.030;2023-03-01T06:15:54;31.90;;;15.53;;
20397;SDS011;10358;49.590;11.030;2023-03-01T06:18:20;32.07;;;16.00;;
20397;SDS011;10358;49.590;11.030;2023-03-01T06:20:52;30.97;;;15.03;;
20397;SDS011;10358;49.590;11.030;2023-03-01T06:23:18;30.00;;;14.93;;
20397;SDS011;10358;49.590;11.030;2023-03-01T06:25:44;34.67;;;15.30;;
20397;SDS011;10358;49.590;11.030;2023-03-01T06:28:09;31.73;;;15.20;;
20397;SDS011;10358;49.590;11.030;2023-03-01T06:30:35;33.43;;;14.80;;
20397;SDS011;10358;49.590;11.030;2023-03-01T06:33:00;32.30;;;15.40;;
20397;SDS011;10358;49.590;11.030;2023-03-01T06:35:28;30.93;;;14.43;;
20397;SDS011;10358;49.590;11.030;2023-03-01T06:37:55;33.63;;;15.17;;
20397;SDS011;10358;49.590;11.030;2023-03-01T06:40:22;31.03;;;14.50;;
20397;SDS011;10358;49.590;11.030;2023-03-01T06:42:48;32.20;;;15.07;;
20397;SDS011;10358;49.590;11.030;2023-03-01T06:45:15;29.53;;;14.77;;
20397;SDS011;10358;49.590;11.030;2023-03-01T06:47:41;44.40;;;18.60;;
20397;SDS011;10358;49.590;11.030;2023-03-01T06:50:07;33.43;;;15.07;;
20397;SDS011;10358;49.590;11.030;2023-03-01T06:52:33;30.70;;;15.40;;
20397;SDS011;10358;49.590;11.030;2023-03-01T06:54:58;33.57;;;16.20;;
20397;SDS011;10358;49.590;11.030;2023-03-01T06:57:24;32.03;;;15.47;;
20397;SDS011;10358;49.590;11.030;2023-03-01T06:59:50;29.83;;;14.80;;
20397;SDS011;10358;49.590;11.030;2023-03-01T07:02:15;34.43;;;14.97;;
20397;SDS011;10358;49.590;11.030;2023-03-01T07:04:42;34.40;;;15.10;;
20397;SDS011;10358;49.590;11.030;2023-03-01T07:07:07;33.97;;;15.17;;
20397;SDS011;10358;49.590;11.030;2023-03-01T07:09:33;28.23;;;13.87;;
20397;SDS011;10358;49.590;11.030;2023-03-01T07:11:59;28.20;;;14.70;;
20397;SDS011;10358;49.590;11.030;2023-03-01T07:14:24;30.90;;;14.40;;
20397;SDS011;10358;49.590;11.030;2023-03-01T07:16:51;30.67;;;14.43;;
20397;SDS011;10358;49.590;11.030;2023-03-01T07:19:20;29.73;;;14.43;;
20397;SDS011;10358;49.590;11.030;2023-03-01T07:21:46;27.57;;;14.10;;
20397;SDS011;10358;49.590;11.030;2023-03-01T07:24:12;28.57;;;14.17;;
20397;SDS011;10358;49.590;11.030;2023-03-01T07:26:37;32.10;;;13.90;;
20397;SDS011;10358;49.590;11.030;2023-03-01T07:29:04;32.97;;;14.53;;
20397;SDS011;10358;49.590;11.030;2023-03-01T07:31:30;27.83;;;13.67;;
20397;SDS011;10358;49.590;11.030;2023-03-01T07:33:56;29.80;;;14.90;;
20397;SDS011;10358;49.590;11.030;2023-03-01T07:36:22;28.33;;;13.53;;
20397;SDS011;10358;49.590;11.030;2023-03-01T07:38:48;26.30;;;13.83;;
20397;SDS011;10358;49.590;11.030;2023-03-01T07:41:14;30.30;;;14.23;;
20397;SDS011;10358;49.590;11.030;2023-03-01T07:43:39;30.77;;;15.40;;
20397;SDS011;10358;49.590;11.030;2023-03-01T07:46:05;30.87;;;13.93;;
20397;SDS011;10358;49.590;11.030;2023-03-01T07:48:31;33.67;;;16.30;;
20397;SDS011;10358;49.590;11.030;2023-03-01T07:51:01;41.93;;;18.83;;
20397;SDS011;10358;49.590;11.030;2023-03-01T07:53:28;37.37;;;17.50;;
20397;SDS011;10358;49.590;11.030;2023-03-01T07:58:50;32.97;;;13.97;;
20397;SDS011;10358;49.590;11.030;2023-03-01T08:01:17;27.97;;;14.40;;
20397;SDS011;10358;49.590;11.030;2023-03-01T08:03:44;27.13;;;14.47;;
20397;SDS011;10358;49.590;11.030;2023-03-01T08:06:10;28.00;;;14.40;;
20397;SDS011;10358;49.590;11.030;2023-03-01T08:08:37;26.63;;;14.33;;
20397;SDS011;10358;49.590;11.030;2023-03-01T08:11:04;29.07;;;14.00;;
20397;SDS011;10358;49.590;11.030;2023-03-01T08:13:31;29.27;;;14.77;;
20397;SDS011;10358;49.590;11.030;2023-03-01T08:16:04;26.87;;;14.37;;
20397;SDS011;10358;49.590;11.030;2023-03-01T08:18:31;29.67;;;14.20;;
20397;SDS011;10358;49.590;11.030;2023-03-01T08:21:07;30.70;;;14.13;;
20397;SDS011;10358;49.590;11.030;2023-03-01T08:23:35;28.60;;;13.97;;
20397;SDS011;10358;49.590;11.030;2023-03-01T08:26:04;29.67;;;14.70;;
20397;SDS011;10358;49.590;11.030;2023-03-01T08:28:31;28.10;;;14.63;;
20397;SDS011;10358;49.590;11.030;2023-03-01T08:30:56;26.07;;;13.40;;
20397;SDS011;10358;49.590;11.030;2023-03-01T08:33:22;28.83;;;14.40;;
20397;SDS011;10358;49.590;11.030;2023-03-01T08:35:47;26.80;;;14.87;;
20397;SDS011;10358;49.590;11.030;2023-03-01T08:38:13;32.73;;;15.20;;
20397;SDS011;10358;49.590;11.030;2023-03-01T08:40:38;27.80;;;14.20;;
20397;SDS011;10358;49.590;11.030;2023-03-01T08:43:04;28.03;;;14.07;;
20397;SDS011;10358;49.590;11.030;2023-03-01T08:45:29;29.87;;;15.07;;
20397;SDS011;10358;49.590;11.030;2023-03-01T08:47:55;32.03;;;14.90;;
20397;SDS011;10358;49.590;11.030;2023-03-01T08:50:20;25.87;;;13.97;;
20397;SDS011;10358;49.590;11.030;2023-03-01T08:52:47;30.00;;;14.63;;
20397;SDS011;10358;49.590;11.030;2023-03-01T08:55:13;28.37;;;14.73;;
20397;SDS011;10358;49.590;11.030;2023-03-01T08:57:39;31.37;;;15.50;;
20397;SDS011;10358;49.590;11.030;2023-03-01T09:00:05;30.10;;;14.97;;
20397;SDS011;10358;49.590;11.030;2023-03-01T09:02:33;26.73;;;14.27;;
20397;SDS011;10358;49.590;11.030;2023-03-01T09:04:59;30.90;;;15.30;;
20397;SDS011;10358;49.590;11.030;2023-03-01T09:07:25;27.57;;;14.13;;
20397;SDS011;10358;49.590;11.030;2023-03-01T09:09:53;26.83;;;14.37;;
20397;SDS011;10358;49.590;11.030;2023-03-01T09:12:18;25.33;;;13.67;;
20397;SDS011;10358;49.590;11.030;2023-03-01T09:14:44;29.97;;;13.40;;
20397;SDS011;10358;49.590;11.030;2023-03-01T09:17:10;26.27;;;13.30;;
20397;SDS011;10358;49.590;11.030;2023-03-01T09:19:35;23.57;;;13.23;;
20397;SDS011;10358;49.590;11.030;2023-03-01T09:22:02;27.37;;;13.83;;
20397;SDS011;10358;49.590;11.030;2023-03-01T09:24:29;29.27;;;14.80;;
20397;SDS011;10358;49.590;11.030;2023-03-01T09:26:54;24.07;;;13.20;;
20397;SDS011;10358;49.590;11.030;2023-03-01T09:29:20;29.97;;;13.37;;
20397;SDS011;10358;49.590;11.030;2023-03-01T09:31:47;25.83;;;13.37;;
20397;SDS011;10358;49.590;11.030;2023-03-01T09:34:12;24.70;;;13.73;;
20397;SDS011;10358;49.590;11.030;2023-03-01T09:36:41;27.97;;;13.53;;
20397;SDS011;10358;49.590;11.030;2023-03-01T09:39:06;26.20;;;13.13;;
20397;SDS011;10358;49.590;11.030;2023-03-01T09:44:15;27.93;;;13.33;;
20397;SDS011;10358;49.590;11.030;2023-03-01T09:46:47;24.70;;;13.20;;
20397;SDS011;10358;49.590;11.030;2023-03-01T09:49:20;22.97;;;12.83;;
20397;SDS011;10358;49.590;11.030;2023-03-01T09:54:38;27.30;;;13.27;;
20397;SDS011;10358;49.590;11.030;2023-03-01T09:57:13;28.83;;;13.70;;
20397;SDS011;10358;49.590;11.030;2023-03-01T10:02:45;26.53;;;13.03;;
20397;SDS011;10358;49.590;11.030;2023-03-01T10:08:02;23.83;;;12.53;;
20397;SDS011;10358;49.590;11.030;2023-03-01T10:10:38;24.43;;;12.30;;
20397;SDS011;10358;49.590;11.030;2023-03-01T10:13:13;23.33;;;12.63;;
20397;SDS011;10358;49.590;11.030;2023-03-01T10:15:46;24.60;;;12.60;;
20397;SDS011;10358;49.590;11.030;2023-03-01T10:18:21;25.97;;;13.53;;
20397;SDS011;10358;49.590;11.030;2023-03-01T10:21:01;21.43;;;11.57;;
20397;SDS011;10358;49.590;11.030;2023-03-01T10:23:33;24.47;;;11.60;;
20397;SDS011;10358;49.590;11.030;2023-03-01T10:26:07;24.17;;;12.13;;
20397;SDS011;10358;49.590;11.030;2023-03-01T10:29:02;22.50;;;12.60;;
20397;SDS011;10358;49.590;11.030;2023-03-01T10:31:51;24.67;;;11.97;;
20397;SDS011;10358;49.590;11.030;2023-03-01T10:36:48;22.13;;;11.30;;
20397;SDS011;10358;49.590;11.030;2023-03-01T10:39:23;29.27;;;11.60;;
20397;SDS011;10358;49.590;11.030;2023-03-01T10:42:03;23.43;;;11.03;;
20397;SDS011;10358;49.590;11.030;2023-03-01T10:44:43;24.33;;;13.13;;
20397;SDS011;10358;49.590;11.030;2023-03-01T10:47:18;25.57;;;11.57;;
20397;SDS011;10358;49.590;11.030;2023-03-01T10:52:23;24.13;;;11.87;;
20397;SDS011;10358;49.590;11.030;2023-03-01T10:54:55;23.37;;;12.03;;
20397;SDS011;10358;49.590;11.030;2023-03-01T10:57:31;21.97;;;12.90;;
20397;SDS011;10358;49.590;11.030;2023-03-01T11:02:41;22.00;;;11.70;;
20397;SDS011;10358;49.590;11.030;2023-03-01T11:07:46;26.07;;;12.70;;
20397;SDS011;10358;49.590;11.030;2023-03-01T11:10:19;31.73;;;13.20;;
20397;SDS011;10358;49.590;11.030;2023-03-01T11:12:50;25.87;;;12.60;;
20397;SDS011;10358;49.590;11.030;2023-03-01T11:15:31;24.93;;;12.50;;
20397;SDS011;10358;49.590;11.030;2023-03-01T11:17:57;21.10;;;12.27;;
20397;SDS011;10358;49.590;11.030;2023-03-01T11:20:33;23.30;;;12.07;;
20397;SDS011;10358;49.590;11.030;2023-03-01T11:23:02;23.87;;;13.07;;
20397;SDS011;10358;49.590;11.030;2023-03-01T11:25:36;22.27;;;12.00;;
20397;SDS011;10358;49.590;11.030;2023-03-01T11:28:06;21.90;;;11.67;;
20397;SDS011;10358;49.590;11.030;2023-03-01T11:33:20;21.20;;;10.93;;
20397;SDS011;10358;49.590;11.030;2023-03-01T11:38:55;20.80;;;11.80;;
20397;SDS011;10358;49.590;11.030;2023-03-01T11:41:23;24.53;;;12.00;;
20397;SDS011;10358;49.590;11.030;2023-03-01T11:44:01;25.53;;;12.77;;
20397;SDS011;10358;49.590;11.030;2023-03-01T11:57:52;21.87;;;12.33;;
20397;SDS011;10358;49.590;11.030;2023-03-01T12:08:53;23.47;;;11.60;;
20397;SDS011;10358;49.590;11.030;2023-03-01T12:20:07;23.47;;;11.57;;
20397;SDS011;10358;49.590;11.030;2023-03-01T12:28:29;19.53;;;11.00;;
20397;SDS011;10358;49.590;11.030;2023-03-01T12:40:29;20.03;;;10.37;;
20397;SDS011;10358;49.590;11.030;2023-03-01T12:45:58;20.03;;;10.70;;
20397;SDS011;10358;49.590;11.030;2023-03-01T12:50:55;20.87;;;11.17;;
20397;SDS011;10358;49.590;11.030;2023-03-01T12:53:27;20.10;;;10.83;;
20397;SDS011;10358;49.590;11.030;2023-03-01T12:55:58;18.50;;;10.57;;
20397;SDS011;10358;49.590;11.030;2023-03-01T12:58:41;19.93;;;11.37;;
20397;SDS011;10358;49.590;11.030;2023-03-01T13:03:52;22.80;;;11.43;;
20397;SDS011;10358;49.590;11.030;2023-03-01T13:12:03;19.37;;;11.20;;
20397;SDS011;10358;49.590;11.030;2023-03-01T13:14:49;21.27;;;10.93;;
20397;SDS011;10358;49.590;11.030;2023-03-01T13:17:32;18.33;;;9.97;;
20397;SDS011;10358;49.590;11.030;2023-03-01T13:20:11;20.33;;;10.97;;
20397;SDS011;10358;49.590;11.030;2023-03-01T13:22:38;18.40;;;10.80;;
20397;SDS011;10358;49.590;11.030;2023-03-01T13:25:11;19.13;;;10.90;;
20397;SDS011;10358;49.590;11.030;2023-03-01T13:27:44;21.77;;;11.13;;
20397;SDS011;10358;49.590;11.030;2023-03-01T13:30:57;19.40;;;11.10;;
20397;SDS011;10358;49.590;11.030;2023-03-01T13:35:51;21.23;;;11.90;;
20397;SDS011;10358;49.590;11.030;2023-03-01T13:41:02;19.63;;;11.10;;
20397;SDS011;10358;49.590;11.030;2023-03-01T13:43:30;18.97;;;10.50;;
20397;SDS011;10358;49.590;11.030;2023-03-01T13:46:02;20.63;;;11.30;;
20397;SDS011;10358;49.590;11.030;2023-03-01T13:48:35;21.47;;;11.27;;
20397;SDS011;10358;49.590;11.030;2023-03-01T13:51:03;18.20;;;10.80;;
20397;SDS011;10358;49.590;11.030;2023-03-01T13:53:34;19.83;;;11.37;;
20397;SDS011;10358;49.590;11.030;2023-03-01T13:56:08;21.40;;;10.83;;
20397;SDS011;10358;49.590;11.030;2023-03-01T13:58:47;17.63;;;10.47;;
20397;SDS011;10358;49.590;11.030;2023-03-01T14:01:23;17.67;;;10.57;;
20397;SDS011;10358;49.590;11.030;2023-03-01T14:03:49;19.13;;;10.90;;
20397;SDS011;10358;49.590;11.030;2023-03-01T14:06:15;20.80;;;11.13;;
20397;SDS011;10358;49.590;11.030;2023-03-01T14:08:44;20.23;;;11.27;;
20397;SDS011;10358;49.590;11.030;2023-03-01T14:11:27;19.77;;;10.43;;
20397;SDS011;10358;49.590;11.030;2023-03-01T14:17:07;19.27;;;11.40;;
20397;SDS011;10358;49.590;11.030;2023-03-01T14:19:37;20.50;;;11.03;;
20397;SDS011;10358;49.590;11.030;2023-03-01T14:24:31;18.70;;;10.77;;
20397;SDS011;10358;49.590;11.030;2023-03-01T14:27:03;18.87;;;11.03;;
20397;SDS011;10358;49.590;11.030;2023-03-01T14:29:35;20.90;;;10.83;;
20397;SDS011;10358;49.590;11.030;2023-03-01T14:32:10;17.73;;;10.53;;
20397;SDS011;10358;49.590;11.030;2023-03-01T14:34:46;17.57;;;9.80;;
20397;SDS011;10358;49.590;11.030;2023-03-01T14:37:27;21.90;;;10.07;;
20397;SDS011;10358;49.590;11.030;2023-03-01T14:39:55;16.87;;;9.83;;
20397;SDS011;10358;49.590;11.030;2023-03-01T14:42:22;17.20;;;10.53;;
20397;SDS011;10358;49.590;11.030;2023-03-01T14:44:51;17.83;;;10.00;;
20397;SDS011;10358;49.590;11.030;2023-03-01T14:47:38;17.73;;;9.67;;
20397;SDS011;10358;49.590;11.030;2023-03-01T14:50:22;20.77;;;9.77;;
20397;SDS011;10358;49.590;11.030;2023-03-01T14:52:57;15.50;;;9.43;;
20397;SDS011;10358;49.590;11.030;2023-03-01T14:55:26;14.80;;;9.20;;
20397;SDS011;10358;49.590;11.030;2023-03-01T14:57:55;14.07;;;9.30;;
20397;SDS011;10358;49.590;11.030;2023-03-01T15:00:23;16.90;;;9.80;;
20397;SDS011;10358;49.590;11.030;2023-03-01T15:02:51;17.53;;;8.90;;
20397;SDS011;10358;49.590;11.030;2023-03-01T15:05:22;15.87;;;9.07;;
20397;SDS011;10358;49.590;11.030;2023-03-01T15:07:54;20.17;;;10.07;;
20397;SDS011;10358;49.590;11.030;2023-03-01T15:10:22;15.03;;;9.50;;
20397;SDS011;10358;49.590;11.030;2023-03-01T15:12:51;14.37;;;9.40;;
20397;SDS011;10358;49.590;11.030;2023-03-01T15:18:32;16.30;;;9.70;;
20397;SDS011;10358;49.590;11.030;2023-03-01T15:23:41;17.30;;;9.47;;
20397;SDS011;10358;49.590;11.030;2023-03-01T15:26:21;16.30;;;9.17;;
20397;SDS011;10358;49.590;11.030;2023-03-01T15:28:49;17.80;;;9.83;;
20397;SDS011;10358;49.590;11.030;2023-03-01T15:31:27;14.13;;;8.50;;
20397;SDS011;10358;49.590;11.030;2023-03-01T15:36:57;13.60;;;8.53;;
20397;SDS011;10358;49.590;11.030;2023-03-01T15:39:42;13.20;;;8.40;;
20397;SDS011;10358;49.590;11.030;2023-03-01T15:47:40;15.60;;;8.90;;
20397;SDS011;10358;49.590;11.030;2023-03-01T15:50:15;15.97;;;9.00;;
20397;SDS011;10358;49.590;11.030;2023-03-01T15:52:44;17.47;;;9.43;;
20397;SDS011;10358;49.590;11.030;2023-03-01T15:55:29;15.17;;;8.80;;
20397;SDS011;10358;49.590;11.030;2023-03-01T15:57:58;19.43;;;8.90;;
20397;SDS011;10358;49.590;11.030;2023-03-01T16:00:26;14.37;;;8.90;;
20397;SDS011;10358;49.590;11.030;2023-03-01T16:02:51;18.53;;;9.30;;
20397;SDS011;10358;49.590;11.030;2023-03-01T16:05:22;18.37;;;9.20;;
20397;SDS011;10358;49.590;11.030;2023-03-01T16:07:51;15.03;;;9.07;;
20397;SDS011;10358;49.590;11.030;2023-03-01T16:10:17;19.67;;;10.00;;
20397;SDS011;10358;49.590;11.030;2023-03-01T16:12:43;20.60;;;10.47;;
20397;SDS011;10358;49.590;11.030;2023-03-01T16:15:31;15.97;;;9.77;;
20397;SDS011;10358;49.590;11.030;2023-03-01T16:17:58;20.87;;;11.20;;
20397;SDS011;10358;49.590;11.030;2023-03-01T16:20:24;21.80;;;10.87;;
20397;SDS011;10358;49.590;11.030;2023-03-01T16:22:50;16.87;;;10.17;;
20397;SDS011;10358;49.590;11.030;2023-03-01T16:25:16;21.60;;;10.53;;